Terminal Aerodrome Forecast
Issued by NWS

Home | Current Version | Previous Version | Text Only | Print | Product List | Glossary On
Versions: 1 2 3 4 5 6 7 8 9 10 11 12 13 14 15 16 17 18 19
000
FTUS42 KTAE 301514 AAA
TAFABY
TAF AMD
KABY 301514Z 3015/0112 27011KT P6SM VCTS SCT025CB
      TEMPO 3016/3020 VRB15G30KT 3SM TSRA BKN025CB
     FM010000 23007KT P6SM OVC250=

USA.gov is the U.S. government's official web portal to all federal, state and local government web resources and services.